Time;durP1;ratioP1;P1;durP2;ratioP2;P2;SDS_P1;SDS_P2;PMS_P1;PMS_P2;Temp;Humidity;BMP_temperature;BMP_pressure;BME280_temperature;BME280_humidity;BME280_pressure;Samples;Min_cycle;Max_cycle;Signal;HPM_P1;HPM_P2
2023/08/16 00:00:20;;;;;;;4.45;1.65;;;19.60;97.90;;;;;;6211430;23;20083;-79
2023/08/16 00:02:45;;;;;;;2.40;1.33;;;19.60;98.00;;;;;;6211630;23;20007;-79
2023/08/16 00:05:11;;;;;;;2.70;1.52;;;19.60;98.20;;;;;;6211787;23;20008;-79
2023/08/16 00:07:38;;;;;;;2.40;1.58;;;19.50;98.30;;;;;;6211238;23;20007;-79
2023/08/16 00:10:10;;;;;;;2.65;1.35;;;19.50;98.40;;;;;;6211155;23;20008;-79
2023/08/16 00:12:36;;;;;;;2.47;1.30;;;19.50;98.40;;;;;;6211256;23;20382;-79
2023/08/16 00:15:01;;;;;;;3.25;1.58;;;19.50;98.40;;;;;;6211916;23;20032;-79
2023/08/16 00:17:27;;;;;;;2.47;1.10;;;19.50;98.40;;;;;;6184665;23;20009;-79
2023/08/16 00:19:52;;;;;;;3.28;1.17;;;19.50;98.40;;;;;;6211675;23;20405;-79
2023/08/16 00:22:18;;;;;;;4.13;1.52;;;19.50;98.50;;;;;;6211026;23;20001;-79
2023/08/16 00:24:43;;;;;;;3.25;1.88;;;19.50;98.50;;;;;;6210241;23;20080;-79
2023/08/16 00:27:09;;;;;;;3.33;1.27;;;19.50;98.50;;;;;;6211506;23;20446;-79
2023/08/16 00:29:34;;;;;;;2.83;2.08;;;19.50;98.40;;;;;;6209303;23;20431;-79
2023/08/16 00:32:03;;;;;;;2.40;1.33;;;19.50;98.40;;;;;;6211613;23;20005;-79
2023/08/16 00:34:28;;;;;;;2.17;1.38;;;19.50;98.20;;;;;;6211431;23;19997;-80
2023/08/16 00:36:54;;;;;;;3.72;1.10;;;19.40;98.10;;;;;;6211266;23;20043;-79
2023/08/16 00:39:20;;;;;;;4.90;1.30;;;19.40;98.10;;;;;;6210305;23;20004;-78
2023/08/16 00:41:45;;;;;;;3.30;1.52;;;19.30;98.00;;;;;;6210993;23;20000;-79
2023/08/16 00:44:11;;;;;;;3.72;1.15;;;19.30;98.00;;;;;;6184972;23;20090;-79
2023/08/16 00:46:37;;;;;;;2.58;1.35;;;19.30;98.00;;;;;;6210582;23;20036;-79
2023/08/16 00:49:04;;;;;;;2.25;1.00;;;19.30;97.90;;;;;;6211470;23;20304;-80
2023/08/16 00:51:29;;;;;;;4.95;1.33;;;19.20;98.00;;;;;;6210956;23;20388;-79
2023/08/16 00:53:55;;;;;;;3.17;1.30;;;19.20;97.90;;;;;;6210420;23;20001;-78
2023/08/16 00:56:21;;;;;;;4.25;1.90;;;19.20;97.90;;;;;;6210648;23;20032;-79
2023/08/16 00:58:47;;;;;;;3.05;1.60;;;19.10;97.90;;;;;;6211054;23;20001;-79
2023/08/16 01:01:12;;;;;;;4.55;1.60;;;19.10;97.90;;;;;;6211278;23;20004;-79
2023/08/16 01:03:38;;;;;;;3.92;1.60;;;19.10;97.90;;;;;;6210723;23;20066;-79
2023/08/16 01:06:04;;;;;;;2.00;1.73;;;19.10;98.00;;;;;;6210903;23;20071;-79
2023/08/16 01:08:31;;;;;;;3.83;2.03;;;19.10;98.00;;;;;;6210505;23;20004;-79
2023/08/16 01:11:07;;;;;;;2.63;1.75;;;19.10;98.00;;;;;;6211215;23;20419;-79
2023/08/16 01:14:06;;;;;;;4.35;1.70;;;19.20;98.10;;;;;;6210452;23;20016;-79
2023/08/16 01:16:34;;;;;;;3.10;1.27;;;19.20;98.10;;;;;;6210592;23;20692;-79
2023/08/16 01:19:00;;;;;;;3.28;1.90;;;19.20;98.00;;;;;;6211183;23;20330;-79
2023/08/16 01:21:27;;;;;;;2.35;1.60;;;19.20;98.00;;;;;;6210044;23;20322;-79
2023/08/16 01:24:08;;;;;;;5.32;1.38;;;19.20;98.00;;;;;;6210899;23;20024;-79
2023/08/16 01:26:37;;;;;;;2.92;1.90;;;19.30;97.90;;;;;;6183689;23;20458;-79
2023/08/16 01:29:05;;;;;;;3.25;1.85;;;19.20;97.90;;;;;;6211027;23;19996;-80
2023/08/16 01:31:33;;;;;;;2.00;1.25;;;19.20;98.00;;;;;;6210550;23;19992;-79
2023/08/16 01:33:59;;;;;;;4.18;1.80;;;19.20;98.00;;;;;;6211342;23;20084;-79
2023/08/16 01:36:25;;;;;;;2.45;1.80;;;19.20;98.00;;;;;;6183435;23;20076;-79
2023/08/16 01:38:52;;;;;;;2.17;1.55;;;19.20;98.00;;;;;;6210817;23;20008;-79
2023/08/16 01:41:30;;;;;;;2.10;1.42;;;19.20;98.10;;;;;;6210499;23;20000;-79
2023/08/16 01:43:56;;;;;;;2.88;1.88;;;19.20;98.20;;;;;;6210939;23;20492;-79
2023/08/16 01:46:23;;;;;;;2.50;1.30;;;19.20;98.20;;;;;;6210345;23;20012;-79
2023/08/16 01:48:51;;;;;;;3.15;1.67;;;19.20;98.20;;;;;;6210658;23;20001;-79
2023/08/16 01:51:17;;;;;;;2.75;1.85;;;19.30;98.20;;;;;;6210200;23;20119;-79
2023/08/16 01:53:49;;;;;;;2.70;1.63;;;19.30;98.20;;;;;;6210616;23;20007;-79
2023/08/16 01:56:14;;;;;;;3.50;1.85;;;19.30;98.10;;;;;;6208461;23;20370;-79
2023/08/16 01:58:40;;;;;;;3.75;1.25;;;19.30;98.10;;;;;;6210479;23;20012;-79
2023/08/16 02:01:06;;;;;;;2.47;1.40;;;19.30;98.00;;;;;;6210636;23;20005;-79
2023/08/16 02:03:32;;;;;;;3.42;1.73;;;19.30;98.20;;;;;;6210346;23;20085;-79
2023/08/16 02:05:58;;;;;;;2.03;1.25;;;19.40;98.00;;;;;;6210189;23;20446;-79
2023/08/16 02:08:24;;;;;;;2.88;1.30;;;19.40;98.00;;;;;;6210100;23;20005;-79
2023/08/16 02:10:49;;;;;;;5.00;1.60;;;19.40;97.90;;;;;;6209858;23;20007;-79
2023/08/16 02:13:15;;;;;;;2.75;1.60;;;19.40;97.90;;;;;;6209990;23;20027;-80
2023/08/16 02:15:40;;;;;;;3.67;1.60;;;19.40;97.80;;;;;;6210042;23;20068;-79
2023/08/16 02:18:10;;;;;;;4.45;1.55;;;19.30;97.70;;;;;;6209413;23;20386;-79
2023/08/16 02:20:38;;;;;;;2.35;1.00;;;19.40;97.80;;;;;;6209302;23;20004;-79
2023/08/16 02:23:04;;;;;;;3.00;1.80;;;19.40;97.80;;;;;;6210573;23;20060;-79
2023/08/16 02:25:30;;;;;;;7.75;2.10;;;19.40;97.80;;;;;;6210081;23;20035;-78
2023/08/16 02:27:55;;;;;;;4.22;1.98;;;19.30;97.70;;;;;;6210673;23;19996;-79
2023/08/16 02:30:21;;;;;;;4.55;1.52;;;19.30;97.70;;;;;;6209773;23;20433;-79
2023/08/16 02:32:47;;;;;;;2.80;1.42;;;19.30;97.70;;;;;;6209010;23;20495;-80
2023/08/16 02:35:13;;;;;;;3.75;1.42;;;19.30;97.70;;;;;;6207868;23;20007;-79
2023/08/16 02:37:41;;;;;;;3.75;2.28;;;19.30;97.70;;;;;;6210099;23;20012;-78
2023/08/16 02:40:07;;;;;;;5.43;1.95;;;19.30;97.70;;;;;;6209980;23;20008;-79
2023/08/16 02:42:33;;;;;;;4.53;1.85;;;19.30;97.70;;;;;;6209889;23;20047;-80
2023/08/16 02:44:58;;;;;;;5.30;1.85;;;19.30;97.80;;;;;;6210832;23;20004;-79
2023/08/16 02:47:24;;;;;;;2.85;1.35;;;19.30;97.80;;;;;;6209992;23;20418;-79
2023/08/16 02:49:49;;;;;;;4.40;1.70;;;19.30;97.90;;;;;;6209875;23;19998;-79
2023/08/16 02:52:15;;;;;;;4.45;2.08;;;19.30;97.80;;;;;;6210276;23;20478;-79
2023/08/16 02:54:41;;;;;;;1.92;1.52;;;19.30;97.80;;;;;;6210085;23;20316;-79
2023/08/16 02:57:07;;;;;;;3.60;1.70;;;19.30;97.90;;;;;;6209510;23;20019;-79
2023/08/16 02:59:45;;;;;;;2.13;1.50;;;19.30;97.90;;;;;;6183199;23;20055;-79
2023/08/16 03:02:13;;;;;;;4.60;1.42;;;19.30;97.90;;;;;;6184083;23;20520;-78
2023/08/16 03:04:39;;;;;;;4.25;1.90;;;19.30;97.90;;;;;;6210288;23;20051;-79
2023/08/16 03:07:06;;;;;;;2.38;1.63;;;19.30;98.00;;;;;;6212108;23;20016;-79
2023/08/16 03:09:32;;;;;;;3.20;1.60;;;19.30;98.10;;;;;;6211961;23;20024;-79
2023/08/16 03:11:57;;;;;;;1.60;1.48;;;19.30;98.00;;;;;;6212194;23;20001;-79
2023/08/16 03:14:23;;;;;;;4.70;1.40;;;19.30;98.00;;;;;;6211927;23;20694;-79
2023/08/16 03:16:49;;;;;;;4.65;1.45;;;19.30;98.00;;;;;;6211581;23;20088;-79
2023/08/16 03:19:14;;;;;;;2.88;1.40;;;19.30;98.00;;;;;;6212386;23;20001;-78
2023/08/16 03:21:40;;;;;;;4.07;1.88;;;19.20;98.00;;;;;;6211922;23;20072;-79
2023/08/16 03:24:06;;;;;;;3.65;1.50;;;19.20;98.10;;;;;;6212034;23;20485;-78
2023/08/16 03:26:31;;;;;;;3.45;1.75;;;19.20;98.20;;;;;;6208978;23;20001;-78
2023/08/16 03:28:57;;;;;;;5.13;1.95;;;19.20;98.30;;;;;;6211579;23;20058;-79
2023/08/16 03:31:22;;;;;;;4.25;1.42;;;19.20;98.40;;;;;;6210171;23;20001;-79
2023/08/16 03:33:48;;;;;;;7.00;1.90;;;19.20;98.40;;;;;;6210256;23;20033;-79
2023/08/16 03:36:14;;;;;;;6.00;1.50;;;19.20;98.50;;;;;;6210363;23;20000;-79
2023/08/16 03:38:41;;;;;;;4.22;1.70;;;19.20;98.60;;;;;;6210010;23;20032;-78
2023/08/16 03:41:07;;;;;;;6.28;2.20;;;19.20;98.60;;;;;;6210250;23;20643;-78
2023/08/16 03:43:36;;;;;;;5.28;1.73;;;19.20;98.60;;;;;;6209793;23;20075;-79
2023/08/16 03:46:03;;;;;;;3.33;1.60;;;19.20;98.60;;;;;;6209894;23;20047;-79
2023/08/16 03:48:28;;;;;;;6.28;1.48;;;19.20;98.60;;;;;;6211675;23;20001;-79
2023/08/16 03:50:54;;;;;;;5.35;1.92;;;19.20;98.70;;;;;;6211698;23;20480;-79
2023/08/16 03:53:19;;;;;;;3.53;1.77;;;19.20;98.70;;;;;;6211090;23;20001;-80
2023/08/16 03:55:45;;;;;;;3.30;1.55;;;19.10;98.70;;;;;;6211608;23;20016;-79
2023/08/16 03:58:10;;;;;;;3.97;1.67;;;19.10;98.80;;;;;;6212008;23;20427;-79
2023/08/16 04:00:36;;;;;;;3.25;1.77;;;19.10;98.80;;;;;;6210871;23;20013;-79
2023/08/16 04:03:04;;;;;;;2.67;1.48;;;19.00;98.90;;;;;;6211898;23;20005;-79
2023/08/16 04:05:29;;;;;;;4.90;2.03;;;19.00;98.90;;;;;;6211376;23;20000;-79
2023/08/16 04:07:55;;;;;;;6.15;2.20;;;19.00;99.00;;;;;;6211824;23;20334;-79
2023/08/16 04:10:21;;;;;;;3.85;2.28;;;18.90;99.00;;;;;;6211398;23;20415;-79
2023/08/16 04:12:46;;;;;;;2.80;1.90;;;18.90;99.10;;;;;;6211322;23;20005;-79
2023/08/16 04:15:12;;;;;;;6.53;2.03;;;18.90;99.10;;;;;;6211076;23;20007;-80
2023/08/16 04:17:39;;;;;;;5.15;2.53;;;18.80;99.40;;;;;;6210705;23;20084;-79
2023/08/16 04:20:08;;;;;;;4.15;2.50;;;18.80;99.20;;;;;;6211623;23;20004;-79
2023/08/16 04:22:34;;;;;;;4.35;2.55;;;18.80;99.40;;;;;;6211075;23;20004;-79
2023/08/16 04:25:01;;;;;;;7.50;3.45;;;18.70;99.40;;;;;;6211838;23;20001;-79
2023/08/16 04:27:27;;;;;;;5.28;2.97;;;18.70;99.50;;;;;;6211386;23;20445;-79
2023/08/16 04:29:53;;;;;;;7.15;3.08;;;18.60;99.60;;;;;;6211199;23;19997;-78
2023/08/16 04:32:19;;;;;;;7.10;3.08;;;18.60;99.60;;;;;;6211082;23;20001;-79
2023/08/16 04:34:44;;;;;;;3.47;2.53;;;18.60;99.70;;;;;;6211303;23;20015;-79
2023/08/16 04:37:10;;;;;;;6.90;3.10;;;18.60;99.70;;;;;;6211593;23;20012;-80
2023/08/16 04:39:36;;;;;;;3.58;2.97;;;18.60;99.80;;;;;;6210889;23;20007;-79
2023/08/16 04:42:01;;;;;;;5.47;2.80;;;18.60;99.80;;;;;;6211635;23;20024;-79
2023/08/16 04:44:27;;;;;;;4.78;2.55;;;18.60;99.90;;;;;;6210662;23;20373;-79
2023/08/16 04:46:52;;;;;;;5.55;3.17;;;18.50;99.90;;;;;;6211575;23;20087;-79
2023/08/16 04:49:18;;;;;;;5.80;2.53;;;18.40;99.90;;;;;;6210945;23;20370;-79
2023/08/16 04:51:44;;;;;;;5.20;2.47;;;18.50;99.90;;;;;;6210989;23;20001;-80
2023/08/16 04:54:09;;;;;;;4.95;2.63;;;18.40;99.90;;;;;;6211187;23;20020;-79
2023/08/16 04:56:36;;;;;;;3.83;2.30;;;18.40;99.90;;;;;;6211049;23;20044;-79
2023/08/16 04:59:01;;;;;;;4.57;2.10;;;18.30;99.90;;;;;;6210870;23;20139;-79
2023/08/16 05:01:27;;;;;;;6.25;2.80;;;18.40;99.90;;;;;;6210912;23;20423;-79
2023/08/16 05:03:53;;;;;;;2.85;1.80;;;18.40;99.90;;;;;;6210978;23;20115;-79
2023/08/16 05:06:19;;;;;;;5.10;2.55;;;18.30;99.90;;;;;;6210826;23;20007;-79
2023/08/16 05:08:45;;;;;;;2.40;1.85;;;18.40;99.90;;;;;;6211012;23;20001;-79
2023/08/16 05:11:10;;;;;;;2.50;2.00;;;18.40;99.90;;;;;;6211304;23;20000;-79
2023/08/16 05:13:36;;;;;;;3.17;1.70;;;18.30;99.90;;;;;;6183486;23;20377;-79
2023/08/16 05:16:02;;;;;;;4.68;1.70;;;18.40;99.90;;;;;;6211029;23;20039;-79
2023/08/16 05:18:28;;;;;;;2.92;1.98;;;18.40;99.90;;;;;;6210659;23;20096;-81
2023/08/16 05:20:58;;;;;;;5.55;2.05;;;18.40;99.90;;;;;;6211007;23;20422;-80
2023/08/16 05:23:24;;;;;;;5.72;2.30;;;18.50;99.90;;;;;;6210411;23;20127;-80
2023/08/16 05:25:50;;;;;;;4.03;2.30;;;18.50;99.90;;;;;;6210848;23;20036;-81
2023/08/16 05:28:15;;;;;;;4.95;2.33;;;18.50;99.90;;;;;;6209813;23;20005;-81
2023/08/16 05:30:41;;;;;;;3.03;2.13;;;18.60;99.90;;;;;;6210790;23;20423;-80
2023/08/16 05:33:06;;;;;;;5.53;2.60;;;18.60;99.90;;;;;;6184011;23;20157;-80
2023/08/16 05:35:33;;;;;;;3.42;2.30;;;18.60;99.90;;;;;;6183678;23;20009;-79
2023/08/16 05:37:59;;;;;;;4.45;2.70;;;18.60;99.90;;;;;;6211012;23;20068;-80
2023/08/16 05:40:25;;;;;;;4.22;2.85;;;18.50;99.90;;;;;;6180136;23;20395;-79
2023/08/16 05:42:50;;;;;;;3.97;2.15;;;18.60;99.90;;;;;;6206908;23;20067;-80
2023/08/16 05:45:16;;;;;;;5.10;2.97;;;18.60;99.90;;;;;;6207330;23;20330;-80
2023/08/16 05:47:42;;;;;;;5.80;2.88;;;18.60;99.90;;;;;;6207327;23;20016;-80
2023/08/16 05:50:08;;;;;;;6.43;2.88;;;18.60;99.90;;;;;;6208207;23;20419;-80
2023/08/16 05:52:33;;;;;;;4.90;2.85;;;18.70;99.90;;;;;;6183351;23;20019;-81
2023/08/16 05:54:59;;;;;;;7.15;4.20;;;18.70;99.90;;;;;;6192948;23;20036;-80
2023/08/16 05:57:24;;;;;;;9.15;5.00;;;18.80;99.90;;;;;;6208029;23;20001;-80
2023/08/16 05:59:50;;;;;;;5.57;4.43;;;18.80;99.90;;;;;;6210394;23;20034;-80
2023/08/16 06:02:16;;;;;;;6.85;4.35;;;18.80;99.90;;;;;;6210463;23;20001;-80
2023/08/16 06:04:42;;;;;;;4.07;3.47;;;18.80;99.90;;;;;;6210372;23;20001;-80
2023/08/16 06:07:08;;;;;;;5.60;3.35;;;18.90;99.90;;;;;;6210402;23;20009;-75
2023/08/16 06:09:34;;;;;;;6.35;3.72;;;18.90;99.90;;;;;;6208297;23;20008;-74
2023/08/16 06:12:00;;;;;;;6.30;3.70;;;18.90;99.90;;;;;;6210148;23;20043;-74
2023/08/16 06:14:25;;;;;;;4.88;3.22;;;18.90;99.90;;;;;;6210263;23;20031;-74
2023/08/16 06:16:51;;;;;;;6.53;3.95;;;19.00;99.90;;;;;;6210618;23;20422;-74
2023/08/16 06:19:17;;;;;;;6.60;4.60;;;19.00;99.90;;;;;;6210499;23;20005;-74
2023/08/16 06:21:42;;;;;;;4.97;3.17;;;19.10;99.90;;;;;;6210415;23;20009;-73
2023/08/16 06:24:08;;;;;;;12.27;4.18;;;19.10;99.90;;;;;;6210619;23;20001;-74
2023/08/16 06:26:34;;;;;;;7.78;3.67;;;19.20;99.90;;;;;;6209572;23;20009;-74
2023/08/16 06:29:00;;;;;;;4.68;2.67;;;19.30;99.90;;;;;;6210763;23;20001;-74
2023/08/16 06:31:26;;;;;;;7.53;3.53;;;19.40;99.90;;;;;;6210357;23;20012;-74
2023/08/16 06:33:51;;;;;;;5.22;2.88;;;19.50;99.90;;;;;;6210537;23;20028;-74
2023/08/16 06:36:17;;;;;;;4.35;2.90;;;19.60;99.90;;;;;;6210359;23;20004;-74
2023/08/16 06:38:43;;;;;;;5.55;3.58;;;19.70;99.90;;;;;;6210059;23;20062;-74
2023/08/16 06:41:09;;;;;;;4.88;3.00;;;19.80;99.90;;;;;;6212108;23;20016;-74
2023/08/16 06:43:35;;;;;;;3.92;2.97;;;19.80;99.90;;;;;;6212037;23;20042;-74
2023/08/16 06:46:00;;;;;;;4.97;2.63;;;19.90;99.90;;;;;;6212407;23;20008;-74
2023/08/16 06:48:26;;;;;;;4.82;1.92;;;20.00;99.90;;;;;;6211793;23;20001;-74
2023/08/16 06:50:53;;;;;;;3.83;2.28;;;20.00;99.90;;;;;;6212116;23;20004;-74
2023/08/16 06:53:19;;;;;;;7.18;2.90;;;20.10;99.90;;;;;;6212270;23;20012;-74
2023/08/16 06:55:45;;;;;;;5.63;2.80;;;20.10;99.90;;;;;;6211416;23;20044;-74
2023/08/16 06:58:10;;;;;;;6.78;3.22;;;20.20;99.90;;;;;;6212575;23;20056;-75
2023/08/16 07:00:36;;;;;;;6.80;3.08;;;20.30;99.90;;;;;;6209875;23;20059;-74
2023/08/16 07:03:02;;;;;;;6.03;3.38;;;20.30;99.80;;;;;;6184219;23;20005;-74
2023/08/16 07:05:28;;;;;;;6.90;2.38;;;20.20;99.50;;;;;;6211954;23;20007;-74
2023/08/16 07:07:55;;;;;;;5.35;2.75;;;20.20;99.50;;;;;;6209055;23;20009;-74
2023/08/16 07:10:21;;;;;;;4.47;3.05;;;20.20;99.50;;;;;;6182994;23;20613;-74
2023/08/16 07:12:46;;;;;;;4.40;2.50;;;20.30;99.50;;;;;;6211407;23;20019;-74
2023/08/16 07:15:12;;;;;;;2.80;2.13;;;20.40;99.40;;;;;;6210172;23;19997;-74
2023/08/16 07:17:41;;;;;;;6.45;2.67;;;20.40;99.30;;;;;;6210634;23;20079;-74
2023/08/16 07:20:07;;;;;;;6.53;2.63;;;20.40;99.20;;;;;;6211143;23;20330;-74
2023/08/16 07:22:37;;;;;;;5.65;2.40;;;20.50;99.20;;;;;;6211417;23;20059;-73
2023/08/16 07:25:06;;;;;;;5.32;3.08;;;20.60;99.20;;;;;;6211249;23;20051;-74
2023/08/16 07:27:32;;;;;;;8.13;2.95;;;20.70;99.00;;;;;;6211012;23;20001;-74
2023/08/16 07:29:58;;;;;;;6.65;1.90;;;20.70;98.90;;;;;;6211712;23;20062;-74
2023/08/16 07:32:23;;;;;;;7.47;2.30;;;20.70;98.90;;;;;;6185285;23;20434;-74
2023/08/16 07:34:50;;;;;;;3.92;2.05;;;20.60;98.90;;;;;;6210296;23;20336;-74
2023/08/16 07:37:17;;;;;;;5.75;2.33;;;20.60;98.90;;;;;;6211416;23;20063;-74
2023/08/16 07:39:44;;;;;;;4.78;2.08;;;20.50;98.90;;;;;;6184374;23;20008;-74
2023/08/16 07:42:10;;;;;;;3.10;1.90;;;20.50;98.90;;;;;;6211842;23;20005;-74
2023/08/16 07:44:36;;;;;;;5.28;2.00;;;20.50;99.00;;;;;;6211220;23;20375;-74
2023/08/16 07:47:02;;;;;;;4.18;1.92;;;20.40;99.00;;;;;;6211421;23;20023;-74
2023/08/16 07:49:28;;;;;;;3.95;1.70;;;20.30;99.00;;;;;;6184475;23;20012;-74
2023/08/16 07:51:55;;;;;;;5.30;3.03;;;20.30;99.00;;;;;;6211427;23;20000;-74
2023/08/16 07:54:21;;;;;;;4.78;1.90;;;20.30;99.10;;;;;;6210669;23;20547;-74
2023/08/16 07:56:47;;;;;;;5.10;1.75;;;20.30;99.20;;;;;;6184524;23;20392;-74
2023/08/16 07:59:13;;;;;;;5.63;1.90;;;20.30;99.30;;;;;;6211376;23;20004;-74
2023/08/16 08:01:43;;;;;;;3.38;1.70;;;20.30;99.40;;;;;;6211287;23;20094;-74
2023/08/16 08:04:09;;;;;;;4.65;2.00;;;20.40;99.40;;;;;;6210822;23;20376;-74
2023/08/16 08:06:35;;;;;;;5.75;1.85;;;20.50;99.40;;;;;;6184567;23;20020;-74
2023/08/16 08:09:02;;;;;;;5.68;1.83;;;20.50;99.20;;;;;;6210975;23;20103;-74
2023/08/16 08:11:28;;;;;;;2.67;1.30;;;20.60;99.00;;;;;;6210686;23;20008;-74
2023/08/16 08:13:53;;;;;;;5.93;1.73;;;20.70;98.90;;;;;;6211388;23;20001;-73
2023/08/16 08:16:19;;;;;;;3.50;1.45;;;20.80;98.70;;;;;;6211239;23;20004;-74
2023/08/16 08:18:45;;;;;;;2.53;1.65;;;20.80;98.60;;;;;;6211274;23;20422;-74
2023/08/16 08:21:11;;;;;;;3.33;1.60;;;20.90;98.60;;;;;;6211100;23;20001;-74
2023/08/16 08:23:36;;;;;;;4.28;1.63;;;20.90;98.50;;;;;;6210320;23;20330;-74
2023/08/16 08:26:02;;;;;;;4.50;1.27;;;20.80;98.40;;;;;;6210302;23;20043;-74
2023/08/16 08:28:28;;;;;;;4.85;1.70;;;20.80;98.50;;;;;;6210650;23;20011;-74
2023/08/16 08:30:53;;;;;;;6.18;1.60;;;20.90;98.50;;;;;;6211031;23;20068;-74
2023/08/16 08:33:19;;;;;;;3.00;1.10;;;20.80;98.60;;;;;;6210976;23;20005;-74
2023/08/16 08:35:46;;;;;;;3.08;1.58;;;20.80;98.60;;;;;;6211256;23;20016;-74
2023/08/16 08:38:12;;;;;;;2.13;1.77;;;20.80;98.70;;;;;;6210960;23;20001;-74
2023/08/16 08:40:38;;;;;;;3.47;1.45;;;20.90;98.70;;;;;;6211152;23;20423;-74
2023/08/16 08:43:05;;;;;;;6.85;1.67;;;20.90;98.60;;;;;;6211113;23;20000;-74
2023/08/16 08:45:31;;;;;;;4.20;1.85;;;20.90;98.50;;;;;;6210984;23;20032;-74
2023/08/16 08:47:58;;;;;;;3.28;1.38;;;21.10;98.50;;;;;;6211163;23;20020;-73
2023/08/16 08:50:24;;;;;;;4.57;1.58;;;21.20;98.30;;;;;;6210269;23;20422;-80
2023/08/16 08:52:53;;;;;;;2.40;1.63;;;21.20;98.20;;;;;;6210933;23;20003;-79
2023/08/16 08:55:20;;;;;;;4.90;2.30;;;21.30;98.10;;;;;;6210417;23;20469;-78
2023/08/16 08:57:50;;;;;;;4.45;1.80;;;21.30;98.00;;;;;;6210265;23;20005;-79
2023/08/16 09:00:27;;;;;;;6.97;1.73;;;21.40;98.10;;;;;;6160271;23;20379;-78
2023/08/16 09:02:54;;;;;;;5.28;1.65;;;21.50;98.00;;;;;;6210331;23;20008;-78
2023/08/16 09:05:25;;;;;;;4.78;1.83;;;21.60;98.10;;;;;;6209733;23;20027;-78
2023/08/16 09:07:51;;;;;;;4.93;2.17;;;21.70;97.80;;;;;;6209952;23;20004;-79
2023/08/16 09:10:18;;;;;;;4.55;1.65;;;21.70;97.70;;;;;;6209401;23;20063;-80
2023/08/16 09:12:44;;;;;;;4.82;2.13;;;21.80;97.60;;;;;;6183943;23;20009;-80
2023/08/16 09:15:10;;;;;;;3.13;1.83;;;21.90;97.50;;;;;;6184127;23;20522;-79
2023/08/16 09:17:36;;;;;;;5.65;2.30;;;21.90;97.60;;;;;;6183433;23;20100;-79
2023/08/16 09:20:05;;;;;;;5.10;2.80;;;22.00;97.40;;;;;;6209083;23;20005;-80
2023/08/16 09:22:31;;;;;;;6.07;2.33;;;22.10;97.30;;;;;;6183717;23;20083;-80
2023/08/16 09:24:58;;;;;;;6.97;3.17;;;22.10;97.20;;;;;;6209942;23;20454;-80
2023/08/16 09:27:25;;;;;;;6.10;2.72;;;22.10;96.90;;;;;;6183107;23;20004;-80
2023/08/16 09:29:54;;;;;;;3.55;2.20;;;22.20;96.80;;;;;;6209844;23;20009;-80
2023/08/16 09:32:21;;;;;;;5.07;2.33;;;22.20;96.90;;;;;;6207805;23;20419;-80
2023/08/16 09:34:48;;;;;;;6.05;2.33;;;22.30;96.80;;;;;;6209582;23;20465;-80
2023/08/16 09:37:15;;;;;;;4.93;2.03;;;22.30;96.40;;;;;;6209819;23;20004;-80
2023/08/16 09:39:40;;;;;;;3.80;1.30;;;22.30;96.10;;;;;;6209265;23;20012;-74
2023/08/16 09:42:10;;;;;;;6.35;1.90;;;22.40;95.90;;;;;;6210286;23;20004;-74
2023/08/16 09:44:36;;;;;;;6.72;2.90;;;22.50;95.90;;;;;;6210156;23;20004;-74
2023/08/16 09:47:12;;;;;;;5.82;2.10;;;22.50;95.90;;;;;;6209919;23;20007;-74
2023/08/16 09:49:39;;;;;;;2.58;1.65;;;22.60;95.70;;;;;;6209488;23;20001;-74
2023/08/16 09:52:10;;;;;;;4.63;2.22;;;22.70;95.80;;;;;;6209926;23;20007;-74
2023/08/16 09:54:36;;;;;;;3.58;1.98;;;22.70;95.60;;;;;;6208782;23;20016;-75
2023/08/16 09:57:02;;;;;;;3.67;1.85;;;22.80;95.60;;;;;;6209965;23;20008;-75
2023/08/16 09:59:30;;;;;;;4.38;1.65;;;22.90;95.70;;;;;;6209960;23;20067;-74
2023/08/16 10:01:56;;;;;;;5.55;2.03;;;23.00;95.70;;;;;;6210309;23;20004;-73
2023/08/16 10:04:22;;;;;;;5.88;1.73;;;23.10;95.60;;;;;;6208159;23;20004;-74
2023/08/16 10:06:49;;;;;;;5.45;1.55;;;23.10;95.50;;;;;;6210145;23;20419;-74
2023/08/16 10:09:16;;;;;;;3.42;1.30;;;23.20;95.60;;;;;;6210312;23;20327;-74
2023/08/16 10:11:44;;;;;;;2.42;1.55;;;23.30;95.60;;;;;;6209062;23;20351;-74
2023/08/16 10:14:11;;;;;;;2.75;1.10;;;23.30;94.90;;;;;;6208833;23;20001;-74
2023/08/16 10:16:38;;;;;;;6.05;1.20;;;23.50;94.70;;;;;;6208942;23;20010;-74
2023/08/16 10:19:06;;;;;;;4.85;1.20;;;23.50;94.40;;;;;;6181938;23;20079;-74
2023/08/16 10:21:37;;;;;;;4.03;2.00;;;23.70;94.50;;;;;;6209926;23;20008;-74
2023/08/16 10:24:05;;;;;;;3.78;1.02;;;23.90;94.10;;;;;;6210306;23;20059;-74
2023/08/16 10:26:34;;;;;;;4.13;1.30;;;24.00;93.40;;;;;;6210005;23;20079;-74
2023/08/16 10:29:07;;;;;;;2.80;1.45;;;24.20;92.90;;;;;;6210614;23;20005;-74
2023/08/16 10:31:38;;;;;;;2.95;0.95;;;24.20;92.60;;;;;;6210056;23;20075;-74
2023/08/16 10:34:07;;;;;;;2.45;1.52;;;24.20;92.70;;;;;;6209804;23;20001;-74
2023/08/16 10:36:33;;;;;;;3.00;1.30;;;24.20;92.60;;;;;;6209629;23;20001;-74
2023/08/16 10:38:59;;;;;;;3.30;1.30;;;24.20;92.60;;;;;;6210579;23;20012;-73
2023/08/16 10:41:25;;;;;;;5.00;1.30;;;24.20;92.40;;;;;;6210058;23;20008;-74
2023/08/16 10:43:53;;;;;;;4.68;1.38;;;24.20;92.30;;;;;;6210484;23;20027;-74
2023/08/16 10:46:28;;;;;;;5.07;1.85;;;24.10;92.30;;;;;;6209689;23;20005;-73
2023/08/16 10:49:02;;;;;;;3.35;1.90;;;24.00;92.40;;;;;;6183670;23;20040;-74
2023/08/16 10:51:29;;;;;;;4.22;1.60;;;23.90;92.40;;;;;;6208966;23;20387;-74
2023/08/16 10:53:57;;;;;;;3.65;1.40;;;23.90;92.70;;;;;;6208824;23;20124;-74
2023/08/16 10:56:23;;;;;;;3.08;1.33;;;23.90;93.00;;;;;;6181881;23;20042;-74
2023/08/16 10:58:50;;;;;;;1.85;1.33;;;24.00;93.30;;;;;;6210019;23;20028;-74
2023/08/16 11:01:17;;;;;;;5.18;1.42;;;24.10;92.80;;;;;;6208897;23;20078;-74
2023/08/16 11:03:49;;;;;;;4.72;1.65;;;24.20;92.70;;;;;;6210043;23;20032;-74
2023/08/16 11:06:20;;;;;;;4.00;1.40;;;24.30;92.60;;;;;;6209391;23;20004;-74
2023/08/16 11:08:47;;;;;;;2.65;1.27;;;24.20;92.20;;;;;;6209422;23;20000;-75
2023/08/16 11:11:13;;;;;;;2.72;1.55;;;24.30;92.40;;;;;;6209192;23;19997;-74
2023/08/16 11:13:41;;;;;;;4.10;1.42;;;24.50;92.30;;;;;;6209496;23;19996;-74
2023/08/16 11:16:10;;;;;;;3.35;1.42;;;24.80;92.60;;;;;;6209641;23;20005;-74
2023/08/16 11:18:37;;;;;;;3.40;1.60;;;25.00;92.00;;;;;;6209766;23;20131;-75
2023/08/16 11:21:07;;;;;;;4.25;1.45;;;25.20;91.60;;;;;;6182853;23;20013;-75
2023/08/16 11:23:37;;;;;;;4.32;1.52;;;25.10;91.40;;;;;;6182977;23;20096;-74
2023/08/16 11:26:04;;;;;;;4.78;1.10;;;25.10;91.60;;;;;;6210359;23;20012;-73
2023/08/16 11:28:31;;;;;;;3.60;1.15;;;25.10;91.80;;;;;;6209511;23;20143;-74
2023/08/16 11:30:58;;;;;;;2.97;1.50;;;25.20;91.60;;;;;;6211177;23;20003;-74
2023/08/16 11:33:30;;;;;;;3.33;1.60;;;25.30;91.40;;;;;;6210667;23;20003;-74
2023/08/16 11:35:56;;;;;;;2.28;0.95;;;25.40;91.00;;;;;;6211600;23;20510;-74
2023/08/16 11:38:23;;;;;;;3.17;1.42;;;25.50;90.80;;;;;;6211574;23;20004;-74
2023/08/16 11:40:48;;;;;;;2.40;1.10;;;25.60;90.60;;;;;;6211936;23;20016;-74
2023/08/16 11:43:14;;;;;;;4.10;1.40;;;25.50;90.50;;;;;;6211701;23;20068;-74
2023/08/16 11:45:40;;;;;;;4.00;1.40;;;25.40;90.30;;;;;;6211262;23;20020;-76
2023/08/16 11:48:06;;;;;;;3.05;1.00;;;25.20;90.00;;;;;;6211581;23;20079;-76
2023/08/16 11:50:33;;;;;;;1.98;1.10;;;25.00;89.70;;;;;;6211463;23;20001;-73
2023/08/16 11:53:03;;;;;;;3.05;0.90;;;24.80;90.20;;;;;;6211876;23;20004;-74
2023/08/16 11:55:29;;;;;;;2.65;0.95;;;24.70;90.10;;;;;;6200223;23;20020;-73
2023/08/16 11:58:08;;;;;;;3.28;1.00;;;24.70;90.00;;;;;;6211537;23;20185;-73
2023/08/16 12:00:35;;;;;;;4.88;1.20;;;24.60;89.90;;;;;;6211045;23;20453;-73
2023/08/16 12:03:05;;;;;;;3.13;1.30;;;24.60;90.30;;;;;;6211775;23;20059;-74
2023/08/16 12:05:35;;;;;;;1.70;0.75;;;24.60;89.90;;;;;;6209473;23;20334;-74
2023/08/16 12:08:04;;;;;;;1.83;0.90;;;24.50;90.30;;;;;;6211596;23;20000;-74
2023/08/16 12:10:32;;;;;;;4.85;1.33;;;24.50;90.10;;;;;;6211150;23;19996;-74
2023/08/16 12:12:58;;;;;;;3.58;1.00;;;24.50;90.20;;;;;;6211072;23;19997;-74
2023/08/16 12:15:27;;;;;;;3.47;1.30;;;24.50;90.40;;;;;;6210564;23;20004;-74
2023/08/16 12:17:55;;;;;;;2.70;1.45;;;24.50;90.60;;;;;;6211823;23;20492;-74
2023/08/16 12:20:23;;;;;;;2.28;1.02;;;24.50;90.60;;;;;;6211164;23;20001;-73
2023/08/16 12:22:48;;;;;;;2.60;1.00;;;24.60;90.50;;;;;;6211471;23;20419;-74
2023/08/16 12:25:14;;;;;;;2.25;1.40;;;24.70;90.60;;;;;;6211429;23;20085;-74
2023/08/16 12:27:40;;;;;;;2.72;1.25;;;24.80;90.40;;;;;;6211321;23;20496;-74
2023/08/16 12:30:06;;;;;;;3.67;1.33;;;25.00;90.20;;;;;;6210528;23;20056;-74
2023/08/16 12:32:31;;;;;;;2.63;1.25;;;25.00;89.70;;;;;;6210835;23;19996;-74
2023/08/16 12:35:00;;;;;;;2.15;0.93;;;25.20;89.10;;;;;;6209643;23;20099;-74
2023/08/16 12:37:26;;;;;;;3.65;1.17;;;25.30;89.10;;;;;;6208827;23;20014;-74
2023/08/16 12:39:51;;;;;;;2.13;1.33;;;25.40;88.30;;;;;;6209990;23;20004;-74
2023/08/16 12:42:17;;;;;;;2.22;0.80;;;25.60;88.10;;;;;;6211134;23;20004;-73
2023/08/16 12:44:43;;;;;;;3.03;1.42;;;25.70;87.40;;;;;;6210536;23;20360;-74